Time;durP1;ratioP1;P1;durP2;ratioP2;P2;SDS_P1;SDS_P2;PMS_P1;PMS_P2;Temp;Humidity;BMP_temperature;BMP_pressure;BME280_temperature;BME280_humidity;BME280_pressure;Samples;Min_cycle;Max_cycle;Signal;HPM_P1;HPM_P2
2021/06/06 00:10:12;;;;;;;25.18;12.60;;;;;;;14.97;85.94;100865.14;714182;1202;115432;-71
2021/06/06 00:25:33;;;;;;;26.15;14.75;;;;;;;14.72;87.32;100864.05;714102;1203;114817;-71
2021/06/06 00:40:57;;;;;;;22.60;12.05;;;;;;;14.56;89.12;100858.58;714084;1200;115390;-71
2021/06/06 00:56:23;;;;;;;19.15;10.05;;;;;;;14.40;88.81;100859.22;714089;1199;115860;-71
2021/06/06 01:11:58;;;;;;;23.08;11.78;;;;;;;14.18;90.69;100863.05;714253;1199;115517;-71
2021/06/06 01:27:23;;;;;;;26.70;14.30;;;;;;;13.87;92.15;100857.99;713985;1200;115340;-71
2021/06/06 01:42:48;;;;;;;21.13;12.70;;;;;;;13.65;92.10;100860.81;714269;1199;115591;-71
2021/06/06 01:58:12;;;;;;;15.68;9.98;;;;;;;13.54;93.45;100862.77;714398;1179;114949;-71
2021/06/06 02:13:44;;;;;;;16.48;8.95;;;;;;;13.34;93.72;100870.65;714119;1199;114346;-71
2021/06/06 02:29:10;;;;;;;23.15;12.08;;;;;;;13.10;95.32;100876.34;714160;1202;115004;-72
2021/06/06 02:44:56;;;;;;;17.75;10.40;;;;;;;13.05;96.10;100871.50;713888;1199;115416;-70
2021/06/06 03:00:36;;;;;;;15.93;9.03;;;;;;;13.05;96.27;100871.50;714173;1203;113846;-71
2021/06/06 03:15:59;;;;;;;14.28;9.28;;;;;;;13.06;96.89;100878.41;714251;1199;115251;-71
2021/06/06 03:31:30;;;;;;;16.95;10.50;;;;;;;13.27;98.64;100873.01;714202;1203;114235;-70
2021/06/06 03:46:53;;;;;;;15.63;9.73;;;;;;;13.62;99.78;100876.92;714144;1176;114736;-71
2021/06/06 04:02:13;;;;;;;16.90;9.53;;;;;;;14.06;100.00;100867.67;714108;1200;115356;-72
2021/06/06 04:17:34;;;;;;;24.00;12.63;;;;;;;14.48;100.00;100868.05;714079;1202;114789;-72
2021/06/06 04:32:54;;;;;;;16.98;10.03;;;;;;;15.09;99.77;100881.61;714794;1200;115608;-73
2021/06/06 04:48:24;;;;;;;11.30;7.30;;;;;;;15.66;99.73;100871.69;714496;1202;114646;-73
2021/06/06 05:03:45;;;;;;;14.23;9.05;;;;;;;16.33;97.62;100864.00;716900;1165;115187;-75
2021/06/06 05:19:06;;;;;;;10.33;7.20;;;;;;;17.04;96.88;100856.61;714031;1200;115379;-76
2021/06/06 05:34:27;;;;;;;13.65;7.68;;;;;;;17.84;93.35;100864.87;713783;1200;114917;-77
2021/06/06 05:49:47;;;;;;;6.58;4.83;;;;;;;18.60;90.53;100875.93;713561;1202;115430;-76
2021/06/06 06:05:08;;;;;;;11.75;5.10;;;;;;;19.23;87.50;100876.73;713968;1202;114466;-75
2021/06/06 06:20:28;;;;;;;7.77;5.40;;;;;;;19.79;84.77;100878.24;713875;1202;114418;-74
2021/06/06 06:35:49;;;;;;;6.13;3.75;;;;;;;20.25;82.20;100883.43;713678;1199;115038;-74
2021/06/06 06:51:11;;;;;;;6.18;3.58;;;;;;;20.80;78.89;100895.59;713624;1199;114326;-75
2021/06/06 07:06:33;;;;;;;9.83;3.70;;;;;;;21.50;76.23;100896.71;713598;1203;114473;-75
2021/06/06 07:21:53;;;;;;;6.55;3.18;;;;;;;22.52;70.69;100883.00;713689;1200;114308;-75
2021/06/06 07:37:14;;;;;;;3.60;2.93;;;;;;;23.37;65.64;100888.77;714030;1199;113868;-75
2021/06/06 07:52:36;;;;;;;4.90;3.05;;;;;;;24.17;60.97;100881.69;713924;1199;114382;-76
2021/06/06 08:07:56;;;;;;;3.70;2.45;;;;;;;25.66;60.14;100892.17;713982;1199;115494;-75
2021/06/06 08:23:18;;;;;;;3.63;2.43;;;;;;;26.53;57.17;100877.80;713823;1200;115023;-76
2021/06/06 08:38:39;;;;;;;2.88;2.43;;;;;;;26.98;54.00;100883.84;715022;1199;114955;-73
2021/06/06 08:54:38;;;;;;;3.58;2.20;;;;;;;27.35;51.62;100881.78;715594;1199;114524;-75
2021/06/06 09:10:03;;;;;;;4.43;2.97;;;;;;;28.24;51.74;100885.41;714555;1199;114631;-74
2021/06/06 09:25:28;;;;;;;4.53;3.17;;;;;;;28.66;50.63;100882.47;714161;1202;115046;-71
2021/06/06 09:40:51;;;;;;;5.38;3.55;;;;;;;27.43;48.41;100871.77;714791;1199;114860;-78
2021/06/06 09:56:21;;;;;;;4.28;2.90;;;;;;;27.46;45.65;100855.13;714645;1199;114695;-78
2021/06/06 10:12:08;;;;;;;5.33;2.70;;;;;;;27.95;46.66;100852.16;714014;1199;115079;-79
2021/06/06 10:27:37;;;;;;;5.83;4.23;;;;;;;28.43;45.04;100861.78;713994;1203;115445;-79
2021/06/06 10:43:27;;;;;;;4.45;3.08;;;;;;;28.52;44.85;100848.71;714115;1200;115242;-79
2021/06/06 10:59:05;;;;;;;4.65;2.53;;;;;;;28.75;43.92;100847.82;714018;1199;114289;-76
2021/06/06 11:14:37;;;;;;;8.80;4.80;;;;;;;28.62;42.36;100827.31;714204;1199;113903;-76
2021/06/06 11:29:58;;;;;;;7.20;2.50;;;;;;;29.55;42.61;100836.95;714153;1199;115189;-75
2021/06/06 11:45:39;;;;;;;3.43;2.23;;;;;;;29.69;42.05;100832.00;713901;1199;113802;-76
2021/06/06 12:01:11;;;;;;;7.25;3.40;;;;;;;28.87;41.40;100813.47;713813;1199;114177;-75
2021/06/06 12:16:31;;;;;;;4.30;3.13;;;;;;;29.74;41.61;100817.75;714115;1202;113841;-77
2021/06/06 12:31:52;;;;;;;2.58;2.25;;;;;;;29.73;43.53;100803.39;715409;1202;113995;-76
2021/06/06 12:47:36;;;;;;;10.65;3.60;;;;;;;29.60;42.19;100799.16;716050;1200;113949;-80
2021/06/06 13:02:56;;;;;;;2.95;2.00;;;;;;;30.24;41.94;100797.80;715772;1178;113855;-80
2021/06/06 13:18:29;;;;;;;3.10;1.78;;;;;;;29.09;41.48;100785.74;715581;1199;115280;-75
2021/06/06 13:33:49;;;;;;;5.33;2.33;;;;;;;31.26;41.20;100788.94;714291;1203;113959;-75
2021/06/06 13:49:10;;;;;;;3.27;2.53;;;;;;;31.27;40.93;100793.28;714593;1200;114203;-76
2021/06/06 14:04:30;;;;;;;2.70;1.68;;;;;;;30.61;40.12;100788.98;714872;1189;113770;-82
2021/06/06 14:19:51;;;;;;;3.93;2.03;;;;;;;30.62;41.28;100789.78;714958;1199;113859;-78
2021/06/06 14:35:14;;;;;;;2.80;2.30;;;;;;;29.92;42.19;100792.29;714475;1183;114904;-77
2021/06/06 14:50:35;;;;;;;2.60;2.20;;;;;;;29.43;42.35;100784.89;714540;1200;114211;-75
2021/06/06 15:05:56;;;;;;;4.93;2.33;;;;;;;27.77;42.92;100774.95;714557;1177;113741;-78
2021/06/06 15:21:25;;;;;;;9.35;4.80;;;;;;;28.97;42.81;100766.93;714007;1199;113844;-76
2021/06/06 15:36:47;;;;;;;3.95;2.95;;;;;;;28.78;42.61;100752.85;714304;1203;115574;-77
2021/06/06 15:52:11;;;;;;;8.17;2.40;;;;;;;28.17;41.93;100736.42;714402;1202;114649;-77
2021/06/06 16:07:31;;;;;;;5.53;2.87;;;;;;;28.06;41.90;100736.23;714118;1202;115520;-76
2021/06/06 16:22:52;;;;;;;6.83;3.15;;;;;;;27.96;42.53;100736.00;714187;1180;115065;-76
2021/06/06 16:38:13;;;;;;;3.88;2.18;;;;;;;27.39;43.09;100728.66;714405;1199;115110;-78
2021/06/06 16:53:35;;;;;;;4.27;2.77;;;;;;;27.17;44.63;100718.45;714638;1199;113985;-76
2021/06/06 17:08:56;;;;;;;3.23;2.70;;;;;;;26.91;45.39;100719.77;714258;1202;113808;-76
2021/06/06 17:24:17;;;;;;;3.90;2.85;;;;;;;26.38;46.93;100705.26;714906;1200;113665;-78
2021/06/06 17:39:38;;;;;;;7.75;4.08;;;;;;;25.73;47.98;100707.59;714375;1178;113677;-78
2021/06/06 17:54:58;;;;;;;4.15;3.00;;;;;;;24.87;49.65;100714.64;714902;1183;114358;-77
2021/06/06 18:10:22;;;;;;;7.83;3.70;;;;;;;24.53;51.50;100711.37;714264;1179;113819;-77
2021/06/06 18:25:46;;;;;;;10.30;5.35;;;;;;;24.13;53.50;100712.45;714742;1175;113682;-78
2021/06/06 18:41:09;;;;;;;10.15;4.58;;;;;;;23.42;56.13;100725.70;714465;1175;113863;-76
2021/06/06 18:56:30;;;;;;;17.50;10.55;;;;;;;22.74;58.09;100750.81;714869;1174;114450;-77
2021/06/06 19:11:53;;;;;;;13.10;7.73;;;;;;;22.07;60.51;100766.66;714891;1177;114108;-77
2021/06/06 19:27:15;;;;;;;10.65;6.03;;;;;;;21.32;63.62;100773.62;715575;1199;113861;-77
2021/06/06 19:42:36;;;;;;;25.75;11.35;;;;;;;20.88;65.54;100786.19;714507;1176;114289;-76
2021/06/06 19:57:58;;;;;;;20.50;10.25;;;;;;;20.49;67.20;100795.39;714551;1199;114916;-77
2021/06/06 20:13:29;;;;;;;17.38;9.85;;;;;;;19.93;68.96;100797.59;714043;1202;114094;-78
2021/06/06 20:28:50;;;;;;;9.87;6.63;;;;;;;19.54;70.41;100803.16;714068;1204;113729;-77
2021/06/06 20:44:14;;;;;;;18.35;6.63;;;;;;;19.22;71.32;100813.91;714210;1198;113643;-75
2021/06/06 20:59:39;;;;;;;24.23;11.60;;;;;;;18.90;73.74;100818.48;714076;1174;114160;-75
2021/06/06 21:15:00;;;;;;;7.77;5.10;;;;;;;18.58;75.06;100822.13;714228;1202;114907;-75
2021/06/06 21:30:25;;;;;;;24.65;11.50;;;;;;;18.45;75.67;100823.54;714368;1202;114488;-75
2021/06/06 21:45:46;;;;;;;10.40;5.30;;;;;;;18.04;77.17;100826.38;715406;1199;114152;-75
2021/06/06 22:01:11;;;;;;;25.25;10.48;;;;;;;17.38;79.01;100830.93;714969;1177;113894;-77
2021/06/06 22:16:31;;;;;;;18.27;8.37;;;;;;;16.91;81.52;100824.47;714943;1199;114853;-77
2021/06/06 22:32:30;;;;;;;12.80;7.78;;;;;;;16.76;81.12;100826.88;714888;1199;114462;-76
2021/06/06 22:48:28;;;;;;;13.68;6.13;;;;;;;16.43;83.64;100838.23;714352;1199;113928;-77
2021/06/06 23:04:26;;;;;;;10.30;6.13;;;;;;;16.12;84.84;100828.16;714211;1178;113959;-78
2021/06/06 23:19:48;;;;;;;26.55;16.43;;;;;;;15.74;86.40;100818.83;714524;1202;113952;-79
2021/06/06 23:35:12;;;;;;;16.70;9.17;;;;;;;15.54;87.86;100818.22;715254;1182;114274;-78
2021/06/06 23:50:34;;;;;;;9.58;7.40;;;;;;;15.14;88.29;100837.06;714729;1202;113719;-78
